Time;durP1;ratioP1;P1;durP2;ratioP2;P2;SDS_P1;SDS_P2;PMS_P1;PMS_P2;Temp;Humidity;BMP_temperature;BMP_pressure;BME280_temperature;BME280_humidity;BME280_pressure;Samples;Min_cycle;Max_cycle;Signal;HPM_P1;HPM_P2
2022/11/03 00:01:36;;;;;;;1999.90;999.90;;;;;;;7.02;100.00;94706.03;4999324;28;20189;-69
2022/11/03 00:04:03;;;;;;;1999.90;999.90;;;;;;;6.98;100.00;94705.28;4999715;28;20289;-67
2022/11/03 00:06:28;;;;;;;1999.90;999.90;;;;;;;6.92;100.00;94715.00;4999117;28;20181;-67
2022/11/03 00:08:57;;;;;;;1999.90;999.90;;;;;;;6.91;100.00;94716.16;4999031;28;20184;-67
2022/11/03 00:11:23;;;;;;;1999.90;999.90;;;;;;;6.90;100.00;94711.91;4999052;28;20174;-68
2022/11/03 00:13:48;;;;;;;1999.90;999.90;;;;;;;6.88;100.00;94709.59;4999016;28;20262;-68
2022/11/03 00:16:13;;;;;;;1999.90;999.90;;;;;;;6.88;100.00;94714.25;4999001;28;20176;-68
2022/11/03 00:18:39;;;;;;;1999.90;999.90;;;;;;;6.87;100.00;94712.69;4998893;28;20176;-68
2022/11/03 00:21:06;;;;;;;1999.90;999.90;;;;;;;6.81;100.00;94708.84;4999062;28;20204;-75
2022/11/03 00:23:34;;;;;;;1999.90;999.90;;;;;;;6.81;100.00;94698.78;4999703;28;20532;-77
2022/11/03 00:26:09;;;;;;;1999.90;999.90;;;;;;;6.81;100.00;94698.00;4998808;28;20259;-75
2022/11/03 00:28:35;;;;;;;1999.90;999.90;;;;;;;6.76;100.00;94680.22;4999180;28;20169;-76
2022/11/03 00:31:04;;;;;;;1999.90;999.90;;;;;;;6.73;100.00;94681.00;4999171;28;20205;-75
2022/11/03 00:33:33;;;;;;;1999.90;999.90;;;;;;;6.68;100.00;94672.50;4999021;28;20212;-75
2022/11/03 00:36:00;;;;;;;1999.90;999.90;;;;;;;6.67;100.00;94654.69;4998469;28;20173;-73
2022/11/03 00:38:27;;;;;;;1999.90;999.90;;;;;;;6.68;100.00;94645.38;4998524;28;20678;-67
2022/11/03 00:40:54;;;;;;;1999.90;999.90;;;;;;;6.71;100.00;94633.75;4998905;28;20189;-60
2022/11/03 00:43:21;;;;;;;1999.90;999.90;;;;;;;6.69;100.00;94615.16;4999112;28;20182;-61
2022/11/03 00:45:46;;;;;;;1999.90;999.90;;;;;;;6.71;100.00;94606.59;4998863;28;20207;-61
2022/11/03 00:48:30;;;;;;;1999.90;999.90;;;;;;;6.63;100.00;94594.28;4998397;28;20184;-61
2022/11/03 00:51:09;;;;;;;1999.90;999.90;;;;;;;6.63;100.00;94578.00;4999012;28;20172;-60
2022/11/03 00:53:41;;;;;;;1999.90;999.90;;;;;;;6.60;100.00;94567.94;4998364;28;20258;-61
2022/11/03 00:56:10;;;;;;;1999.90;999.90;;;;;;;6.54;100.00;94564.09;4998804;28;20169;-61
2022/11/03 00:58:35;;;;;;;1999.90;999.90;;;;;;;6.49;100.00;94545.53;4998877;28;20165;-61
2022/11/03 01:01:07;;;;;;;1999.90;999.90;;;;;;;6.49;100.00;94534.69;4998747;28;20187;-61
2022/11/03 01:03:37;;;;;;;1999.90;999.90;;;;;;;6.47;100.00;94513.38;4998089;28;20173;-61
2022/11/03 01:08:49;;;;;;;1999.90;999.90;;;;;;;6.48;100.00;94495.94;5015907;28;20175;-61
2022/11/03 01:14:03;;;;;;;1999.90;999.90;;;;;;;6.56;100.00;94469.56;5015497;28;20681;-68
2022/11/03 01:16:29;;;;;;;1999.90;999.90;;;;;;;6.58;100.00;94456.34;4998214;28;20227;-65
2022/11/03 01:18:55;;;;;;;1999.90;999.90;;;;;;;6.59;100.00;94433.47;4997549;28;20182;-64
2022/11/03 01:21:21;;;;;;;1999.90;999.90;;;;;;;6.59;100.00;94431.53;4997743;28;20544;-64
2022/11/03 01:23:47;;;;;;;1999.90;999.90;;;;;;;6.59;100.00;94420.69;4998237;28;20180;-64
2022/11/03 01:26:13;;;;;;;1999.90;999.90;;;;;;;6.59;100.00;94420.69;4997521;28;20539;-64
2022/11/03 01:28:42;;;;;;;1999.90;999.90;;;;;;;6.57;100.00;94414.13;4998103;28;20284;-65
2022/11/03 01:31:10;;;;;;;1999.90;999.90;;;;;;;6.55;100.00;94424.59;4997405;28;20184;-65
2022/11/03 01:33:36;;;;;;;1999.90;999.90;;;;;;;6.54;100.00;94417.66;4997508;28;20177;-61
2022/11/03 01:36:01;;;;;;;1999.90;999.90;;;;;;;6.58;100.00;94419.16;4997574;28;20528;-72
2022/11/03 01:38:31;;;;;;;1999.90;999.90;;;;;;;6.60;100.00;94432.31;4997511;28;20224;-73
2022/11/03 01:40:57;;;;;;;1999.90;999.90;;;;;;;6.58;100.00;94437.38;4997564;28;20185;-72
2022/11/03 01:43:23;;;;;;;1999.90;999.90;;;;;;;6.56;100.00;94447.84;4997600;28;20182;-73
2022/11/03 01:45:58;;;;;;;1999.90;999.90;;;;;;;6.55;100.00;94446.28;5014953;28;20188;-73
2022/11/03 01:48:24;;;;;;;1999.90;999.90;;;;;;;6.53;100.00;94443.97;4997933;28;20173;-73
2022/11/03 01:50:51;;;;;;;1999.90;999.90;;;;;;;6.57;100.00;94442.03;4997747;28;20177;-58
2022/11/03 01:53:17;;;;;;;1999.90;999.90;;;;;;;6.58;100.00;94434.66;4997559;28;20248;-72
2022/11/03 01:55:45;;;;;;;1999.90;999.90;;;;;;;6.60;100.00;94437.75;4997897;28;20211;-68
2022/11/03 01:58:21;;;;;;;1999.90;999.90;;;;;;;6.60;100.00;94432.31;4996658;28;20311;-68
2022/11/03 02:00:53;;;;;;;1999.90;999.90;;;;;;;6.54;100.00;94436.63;4997495;28;20180;-68
2022/11/03 02:03:22;;;;;;;1999.90;999.90;;;;;;;6.52;100.00;94436.28;4997866;28;20249;-69
2022/11/03 02:05:49;;;;;;;1999.90;999.90;;;;;;;6.53;100.00;94443.22;4996938;28;20263;-68
2022/11/03 02:08:30;;;;;;;1999.90;999.90;;;;;;;6.46;100.00;94448.72;4997669;28;20180;-67
2022/11/03 02:10:58;;;;;;;1999.90;999.90;;;;;;;6.41;100.00;94451.84;4997221;28;20256;-58
2022/11/03 02:13:26;;;;;;;1999.90;999.90;;;;;;;6.37;100.00;94457.28;4997330;28;20181;-72
2022/11/03 02:15:55;;;;;;;1999.90;999.90;;;;;;;6.40;100.00;94453.00;4997247;28;20212;-72
2022/11/03 02:18:31;;;;;;;1999.90;999.90;;;;;;;6.39;100.00;94454.19;4996953;28;20181;-72
2022/11/03 02:21:17;;;;;;;1999.90;999.90;;;;;;;6.36;100.00;94449.56;4997926;28;20208;-71
2022/11/03 02:23:51;;;;;;;1999.90;999.90;;;;;;;6.36;100.00;94449.56;4996278;28;20199;-71
2022/11/03 02:26:17;;;;;;;1999.90;999.90;;;;;;;6.35;100.00;94453.44;4997193;28;20171;-71
2022/11/03 02:28:43;;;;;;;1999.90;999.90;;;;;;;6.32;100.00;94456.94;4997516;28;20188;-60
2022/11/03 02:31:15;;;;;;;1999.90;999.90;;;;;;;6.27;100.00;94463.56;5014149;28;20248;-68
2022/11/03 02:33:56;;;;;;;1999.90;999.90;;;;;;;6.22;100.00;94472.13;4996594;28;20173;-67
2022/11/03 02:36:36;;;;;;;1999.90;999.90;;;;;;;6.19;100.00;94474.84;4997474;28;20173;-68
2022/11/03 02:39:14;;;;;;;1999.90;999.90;;;;;;;6.24;100.00;94482.56;4996775;28;20318;-67
2022/11/03 02:41:42;;;;;;;1999.90;999.90;;;;;;;6.24;100.00;94485.28;4997392;28;20251;-67
2022/11/03 02:44:15;;;;;;;1999.90;999.90;;;;;;;6.23;100.00;94475.63;4997028;28;20183;-67
2022/11/03 02:46:43;;;;;;;1999.90;999.90;;;;;;;6.22;100.00;94476.75;4996813;28;20307;-66
2022/11/03 02:49:09;;;;;;;1999.90;999.90;;;;;;;6.20;100.00;94468.28;4996464;28;20179;-65
2022/11/03 02:51:34;;;;;;;1999.90;999.90;;;;;;;6.17;100.00;94469.84;4996607;28;20191;-65
2022/11/03 02:54:06;;;;;;;1999.90;999.90;;;;;;;6.17;100.00;94463.63;4996678;28;20208;-65
2022/11/03 02:56:37;;;;;;;1999.90;999.90;;;;;;;6.16;100.00;94464.81;4997176;28;20176;-65
2022/11/03 02:59:11;;;;;;;1999.90;999.90;;;;;;;6.12;100.00;94455.94;4996701;28;20181;-66
2022/11/03 03:01:46;;;;;;;1999.90;999.90;;;;;;;6.10;100.00;94453.63;4997396;28;20173;-66
2022/11/03 03:04:21;;;;;;;1999.90;999.90;;;;;;;6.03;100.00;94455.59;4996820;28;20195;-72
2022/11/03 03:06:53;;;;;;;1999.90;999.90;;;;;;;5.95;100.00;94451.41;4996368;28;20217;-61
2022/11/03 03:09:26;;;;;;;1999.90;999.90;;;;;;;5.89;100.00;94452.97;4997651;28;20258;-69
2022/11/03 03:11:54;;;;;;;1999.90;999.90;;;;;;;5.81;100.00;94451.47;5000738;28;20204;-66
2022/11/03 03:14:25;;;;;;;1999.90;999.90;;;;;;;5.78;100.00;94435.97;5000340;28;20199;-70
2022/11/03 03:16:59;;;;;;;1999.90;999.90;;;;;;;5.80;100.00;94417.41;4999940;28;20258;-69
2022/11/03 03:19:48;;;;;;;1999.90;999.90;;;;;;;5.80;100.00;94406.56;5000620;28;20235;-70
2022/11/03 03:22:23;;;;;;;1999.90;999.90;;;;;;;5.78;100.00;94398.06;5000648;28;20263;-68
2022/11/03 03:25:35;;;;;;;1999.90;999.90;;;;;;;5.73;100.00;94384.94;5000418;28;20181;-69
2022/11/03 03:28:09;;;;;;;1999.90;999.90;;;;;;;5.66;100.00;94368.75;4995856;28;20190;-64
2022/11/03 03:30:35;;;;;;;1999.90;999.90;;;;;;;5.60;100.00;94362.19;4999926;28;20238;-63
2022/11/03 03:33:04;;;;;;;1999.90;999.90;;;;;;;5.55;100.00;94359.91;4999755;28;20276;-64
2022/11/03 03:35:32;;;;;;;1999.90;999.90;;;;;;;5.49;100.00;94348.72;4999763;28;20213;-63
2022/11/03 03:38:03;;;;;;;1999.90;999.90;;;;;;;5.48;100.00;94346.41;4999297;28;21014;-63
2022/11/03 03:40:34;;;;;;;1999.90;999.90;;;;;;;5.48;100.00;94346.41;5000420;28;20247;-69
2022/11/03 03:43:02;;;;;;;1999.90;999.90;;;;;;;5.44;100.00;94345.69;5000369;28;20255;-63
2022/11/03 03:45:30;;;;;;;1999.90;999.90;;;;;;;5.44;100.00;94337.56;4999216;28;20172;-70
2022/11/03 03:47:55;;;;;;;1999.90;999.90;;;;;;;5.44;100.00;94334.84;4999729;28;20175;-70
2022/11/03 03:50:23;;;;;;;1999.90;999.90;;;;;;;5.44;100.00;94332.13;4999545;28;20168;-72
2022/11/03 03:52:54;;;;;;;1999.90;999.90;;;;;;;5.47;100.00;94318.56;4999431;28;20217;-70
2022/11/03 03:55:22;;;;;;;1999.90;999.90;;;;;;;5.50;100.00;94317.03;4999581;28;20225;-69
2022/11/03 03:57:47;;;;;;;1999.90;999.90;;;;;;;5.50;100.00;94303.50;5000043;28;20183;-70
2022/11/03 04:00:14;;;;;;;1999.90;999.90;;;;;;;5.48;100.00;94297.69;4999302;28;20176;-63
2022/11/03 04:02:40;;;;;;;1999.90;999.90;;;;;;;5.46;100.00;94295.38;4999400;28;20202;-76
2022/11/03 04:05:06;;;;;;;1999.90;999.90;;;;;;;5.40;100.00;94296.22;4999204;28;20293;-75
2022/11/03 04:07:46;;;;;;;1999.90;999.90;;;;;;;5.39;100.00;94295.44;4999923;28;20473;-76
2022/11/03 04:10:12;;;;;;;1999.90;999.90;;;;;;;5.37;100.00;94286.16;4999259;28;20183;-76
2022/11/03 04:23:39;;;;;;;1999.90;999.90;;;;;;;5.09;100.00;94287.13;5016547;28;20210;-61
2022/11/03 04:26:11;;;;;;;1999.90;999.90;;;;;;;5.07;100.00;94273.19;4998794;28;20171;-62
2022/11/03 04:28:37;;;;;;;1999.90;999.90;;;;;;;5.17;100.00;94268.91;4999259;28;20171;-60
2022/11/03 04:31:08;;;;;;;1999.90;999.90;;;;;;;5.22;100.00;94257.66;4998855;28;20171;-60
2022/11/03 04:33:34;;;;;;;1999.90;999.90;;;;;;;5.32;100.00;94218.94;4999377;28;20259;-60
2022/11/03 04:35:59;;;;;;;1999.90;999.90;;;;;;;5.38;100.00;94204.56;4999261;28;20344;-69
2022/11/03 04:38:26;;;;;;;1999.90;999.90;;;;;;;5.38;100.00;94187.56;4998378;28;20255;-67
2022/11/03 04:40:54;;;;;;;1999.90;999.90;;;;;;;5.40;100.00;94163.59;4998838;28;20221;-62
2022/11/03 04:43:22;;;;;;;1999.90;999.90;;;;;;;5.40;100.00;94155.47;4998302;28;20277;-61
2022/11/03 04:45:48;;;;;;;1999.90;999.90;;;;;;;5.33;100.00;94140.06;4998419;28;20266;-61
2022/11/03 04:48:17;;;;;;;1999.90;999.90;;;;;;;5.36;100.00;94122.25;4998765;28;20214;-63
2022/11/03 04:50:45;;;;;;;1999.90;999.90;;;;;;;5.33;100.00;94123.03;4998351;28;20188;-63
2022/11/03 04:53:14;;;;;;;1999.90;999.90;;;;;;;5.31;100.00;94115.31;4998452;28;20184;-63
2022/11/03 04:55:40;;;;;;;1999.90;999.90;;;;;;;5.23;100.00;94257.28;4998211;28;20203;-61
2022/11/03 04:58:27;;;;;;;1999.90;999.90;;;;;;;5.21;100.00;94251.47;4998732;28;20202;-63
2022/11/03 05:00:56;;;;;;;1999.90;999.90;;;;;;;5.13;100.00;94239.16;4998190;28;20194;-62
2022/11/03 05:03:24;;;;;;;1999.90;999.90;;;;;;;5.08;100.00;94231.47;4997804;28;20265;-60
2022/11/03 05:05:50;;;;;;;1999.90;999.90;;;;;;;5.14;100.00;94202.06;4997929;28;20179;-60
2022/11/03 05:08:17;;;;;;;1999.90;999.90;;;;;;;5.20;100.00;94189.63;4998095;28;20521;-60
2022/11/03 05:10:43;;;;;;;1999.90;999.90;;;;;;;5.23;100.00;94178.03;4998512;28;20171;-61
2022/11/03 05:13:28;;;;;;;1999.90;999.90;;;;;;;5.24;100.00;94164.09;4997878;28;20234;-60
2022/11/03 05:16:01;;;;;;;1999.90;999.90;;;;;;;5.25;100.00;94154.06;4997382;28;20219;-62
2022/11/03 05:18:31;;;;;;;1999.90;999.90;;;;;;;5.22;100.00;94138.59;4997788;28;20175;-63
2022/11/03 05:21:09;;;;;;;1999.90;999.90;;;;;;;5.23;100.00;94137.44;4997714;28;20175;-62
2022/11/03 05:23:47;;;;;;;1999.90;999.90;;;;;;;5.19;100.00;94126.66;4998477;28;20167;-62
2022/11/03 05:26:25;;;;;;;1999.90;999.90;;;;;;;5.28;100.00;94120.78;4997659;28;20184;-62
2022/11/03 05:29:21;;;;;;;1999.90;999.90;;;;;;;5.37;100.00;94107.53;4998057;28;20179;-62
2022/11/03 05:31:48;;;;;;;1999.90;999.90;;;;;;;5.44;100.00;94093.94;4980912;28;20187;-62
2022/11/03 05:34:25;;;;;;;1999.90;999.90;;;;;;;5.49;100.00;94088.09;4997350;28;20211;-60
2022/11/03 05:36:50;;;;;;;1999.90;999.90;;;;;;;5.57;100.00;94054.38;4997377;28;20169;-76
2022/11/03 05:39:28;;;;;;;1999.90;999.90;;;;;;;5.61;100.00;94026.06;4997222;28;20223;-75
2022/11/03 05:41:56;;;;;;;1999.90;999.90;;;;;;;5.63;100.00;94020.25;4997556;28;20175;-72
2022/11/03 05:44:35;;;;;;;1999.90;999.90;;;;;;;5.66;100.00;94005.91;4998043;28;20176;-72
2022/11/03 05:47:11;;;;;;;1999.90;999.90;;;;;;;5.61;100.00;93988.16;4997998;28;20268;-71
2022/11/03 05:49:36;;;;;;;1999.90;999.90;;;;;;;5.57;100.00;93992.09;4997753;28;20521;-67
2022/11/03 05:52:02;;;;;;;1999.90;999.90;;;;;;;5.48;100.00;93989.09;4997423;28;20176;-65
2022/11/03 05:54:32;;;;;;;1999.90;999.90;;;;;;;5.47;100.00;93982.16;4997364;28;20200;-66
2022/11/03 05:56:58;;;;;;;1999.90;999.90;;;;;;;5.37;100.00;93972.22;4997943;28;20287;-66
2022/11/03 05:59:26;;;;;;;1999.90;999.90;;;;;;;5.28;100.00;93967.28;4997511;28;20619;-66
2022/11/03 06:01:53;;;;;;;1999.90;999.90;;;;;;;5.33;100.00;93955.25;4997546;28;20260;-65
2022/11/03 06:04:31;;;;;;;1999.90;999.90;;;;;;;5.34;100.00;93954.88;4997188;28;20203;-65
2022/11/03 06:07:03;;;;;;;1999.90;999.90;;;;;;;5.33;100.00;93947.16;4997653;28;20204;-65
2022/11/03 06:09:32;;;;;;;1999.90;999.90;;;;;;;5.42;100.00;93931.16;4997348;28;20198;-72
2022/11/03 06:12:01;;;;;;;1999.90;999.90;;;;;;;5.45;100.00;93920.31;4997261;28;20176;-67
2022/11/03 06:14:29;;;;;;;1999.90;999.90;;;;;;;5.47;100.00;93900.97;4997509;28;20283;-68
2022/11/03 06:16:58;;;;;;;1999.90;999.90;;;;;;;5.42;100.00;93883.22;4997586;28;20179;-66
2022/11/03 06:19:34;;;;;;;1999.90;999.90;;;;;;;5.43;100.00;93889.41;4997129;28;20207;-66
2022/11/03 06:22:19;;;;;;;1999.90;999.90;;;;;;;5.51;100.00;93880.03;4997675;28;20182;-66
2022/11/03 06:24:46;;;;;;;1999.90;999.90;;;;;;;5.50;100.00;93883.91;4996818;28;20172;-68
2022/11/03 06:27:19;;;;;;;1999.90;999.90;;;;;;;5.56;100.00;93874.13;4997068;28;20179;-68
2022/11/03 06:30:11;;;;;;;1999.90;999.90;;;;;;;5.62;100.00;93875.22;4997736;28;20168;-63
2022/11/03 06:32:37;;;;;;;1999.90;999.90;;;;;;;5.72;100.00;93877.03;4997623;28;20174;-63
2022/11/03 06:35:02;;;;;;;1999.90;999.90;;;;;;;5.85;100.00;93872.59;4997139;28;20201;-64
2022/11/03 06:37:33;;;;;;;1999.90;999.90;;;;;;;5.87;100.00;93875.66;4996632;28;20220;-62
2022/11/03 06:40:23;;;;;;;1999.90;999.90;;;;;;;5.80;100.00;93878.44;4997517;28;20250;-61
2022/11/03 06:42:51;;;;;;;1999.90;999.90;;;;;;;6.00;100.00;93863.84;4989706;28;20280;-63
2022/11/03 06:45:23;;;;;;;1999.90;999.90;;;;;;;6.15;100.00;93864.34;5000578;28;20621;-68
2022/11/03 06:47:50;;;;;;;1999.90;999.90;;;;;;;6.15;100.00;93858.94;5000342;28;20230;-66
2022/11/03 06:50:26;;;;;;;1999.90;999.90;;;;;;;6.26;100.00;93859.53;5001053;28;20176;-75
2022/11/03 06:52:54;;;;;;;1999.90;999.90;;;;;;;6.19;100.00;93875.91;5000663;28;20178;-73
2022/11/03 06:55:27;;;;;;;1999.90;999.90;;;;;;;6.16;100.00;93874.03;5000530;28;20203;-73
2022/11/03 06:57:57;;;;;;;1999.90;999.90;;;;;;;6.22;100.00;93881.28;5000292;28;20188;-73
2022/11/03 07:00:27;;;;;;;1999.90;999.90;;;;;;;6.24;100.00;93905.25;5000380;28;20279;-71
2022/11/03 07:03:07;;;;;;;1999.90;999.90;;;;;;;6.20;100.00;93915.41;5000330;28;20242;-72
2022/11/03 07:05:33;;;;;;;1999.90;999.90;;;;;;;6.30;100.00;93903.59;5000100;28;20281;-76
2022/11/03 07:08:02;;;;;;;1999.90;999.90;;;;;;;6.60;100.00;93906.19;5017568;28;20204;-73
2022/11/03 07:10:30;;;;;;;1999.90;999.90;;;;;;;6.57;100.00;93923.28;5000422;28;20268;-75
2022/11/03 07:12:58;;;;;;;1999.90;999.90;;;;;;;6.57;100.00;93939.56;4999847;28;20174;-73
2022/11/03 07:15:37;;;;;;;1999.90;999.90;;;;;;;6.66;100.00;93947.91;5000037;28;20678;-73
2022/11/03 07:18:12;;;;;;;1999.90;999.90;;;;;;;6.83;100.00;93952.28;4999694;28;20174;-71
2022/11/03 07:20:38;;;;;;;1999.90;999.90;;;;;;;6.83;100.00;93990.25;4999973;28;20180;-71
2022/11/03 07:23:03;;;;;;;1999.90;999.90;;;;;;;6.71;100.00;94028.84;5000501;28;20176;-72
2022/11/03 07:25:30;;;;;;;1999.90;999.90;;;;;;;6.74;100.00;94053.19;4999822;28;20182;-70
2022/11/03 07:27:56;;;;;;;1999.90;999.90;;;;;;;7.00;100.00;94059.75;4999970;28;20268;-71
2022/11/03 07:30:23;;;;;;;1999.90;999.90;;;;;;;7.07;100.00;94092.22;4999942;28;20207;-69
2022/11/03 07:32:52;;;;;;;1999.90;999.90;;;;;;;7.32;100.00;94108.09;4999411;28;20178;-71
2022/11/03 07:35:24;;;;;;;1999.90;999.90;;;;;;;7.50;100.00;94141.13;4999384;28;20245;-68
2022/11/03 07:37:51;;;;;;;1999.90;999.90;;;;;;;7.91;100.00;94172.25;4999584;28;20691;-68
2022/11/03 07:40:24;;;;;;;1999.90;999.90;;;;;;;7.92;100.00;94244.44;5000244;28;20178;-62
2022/11/03 07:42:51;;;;;;;1999.90;999.90;;;;;;;8.22;100.00;94282.38;4999981;28;20213;-71
2022/11/03 07:45:40;;;;;;;1999.90;999.90;;;;;;;8.50;100.00;94377.09;4999887;28;20252;-61
2022/11/03 07:48:18;;;;;;;1999.90;999.90;;;;;;;8.64;100.00;94510.19;4999951;28;20195;-60
2022/11/03 07:50:44;;;;;;;1999.90;999.90;;;;;;;9.14;100.00;94671.63;4999261;28;20270;-62
2022/11/03 07:53:18;;;;;;;1999.90;999.90;;;;;;;9.28;100.00;94791.28;4999519;28;20222;-62
2022/11/03 07:55:47;;;;;;;1999.90;999.90;;;;;;;9.57;100.00;94882.38;4999290;28;20198;-63
2022/11/03 07:58:23;;;;;;;1999.90;999.90;;;;;;;10.12;100.00;95007.53;4999446;28;20262;-73
2022/11/03 08:00:49;;;;;;;1999.90;999.90;;;;;;;10.73;100.00;95084.69;4999850;28;20201;-77
2022/11/03 08:03:27;;;;;;;1999.90;999.90;;;;;;;10.60;100.00;95158.19;4999860;28;20176;-67
2022/11/03 08:05:52;;;;;;;1999.90;999.90;;;;;;;10.96;100.00;95191.34;4999606;28;20175;-68
2022/11/03 08:08:17;;;;;;;1999.90;999.90;;;;;;;10.74;100.00;95222.81;5000109;28;20602;-68
2022/11/03 08:10:43;;;;;;;1999.90;999.90;;;;;;;10.93;100.00;95216.75;4999056;28;20173;-70
2022/11/03 08:13:08;;;;;;;1999.90;999.90;;;;;;;11.73;100.00;95240.22;4998868;28;20273;-67
2022/11/03 08:15:33;;;;;;;1999.90;999.90;;;;;;;11.99;100.00;95252.34;4998791;28;20248;-68
2022/11/03 08:17:59;;;;;;;1999.90;999.90;;;;;;;12.35;100.00;95256.06;4998731;28;20175;-61
2022/11/03 08:20:24;;;;;;;1999.90;999.90;;;;;;;12.79;100.00;95266.59;4998647;28;20175;-77
2022/11/03 08:22:49;;;;;;;1999.90;999.90;;;;;;;13.38;100.00;95264.66;4999622;28;20498;-75
2022/11/03 08:25:15;;;;;;;1999.90;999.90;;;;;;;13.71;100.00;95271.78;4998995;28;20206;-74
2022/11/03 08:27:40;;;;;;;1999.90;999.90;;;;;;;14.45;100.00;95259.81;4999651;28;20182;-73
2022/11/03 08:30:06;;;;;;;1999.90;999.90;;;;;;;14.60;100.00;95266.50;4998722;28;20591;-76
2022/11/03 08:32:31;;;;;;;1999.90;999.90;;;;;;;15.25;100.00;95262.38;4998820;28;20192;-76
2022/11/03 08:34:57;;;;;;;1999.90;999.90;;;;;;;15.42;100.00;95261.13;4998946;28;20196;-68
2022/11/03 08:37:22;;;;;;;1999.90;999.90;;;;;;;15.55;100.00;95261.16;4999154;28;20170;-60
2022/11/03 08:39:47;;;;;;;1999.90;999.90;;;;;;;16.38;100.00;95260.47;4998294;28;20329;-73
2022/11/03 08:42:13;;;;;;;1999.90;999.90;;;;;;;16.67;100.00;95254.81;4999050;28;20302;-71
2022/11/03 08:44:38;;;;;;;1999.90;999.90;;;;;;;16.74;100.00;95256.56;4998397;28;20183;-72
2022/11/03 08:47:03;;;;;;;1999.90;999.90;;;;;;;17.03;100.00;95260.66;4998417;28;20183;-71
2022/11/03 08:49:29;;;;;;;1999.90;999.90;;;;;;;17.61;100.00;95258.94;4998986;28;20613;-76
2022/11/03 08:51:54;;;;;;;1999.90;999.90;;;;;;;17.96;100.00;95248.53;4998327;28;20226;-79
2022/11/03 08:54:19;;;;;;;1999.90;999.90;;;;;;;18.17;100.00;95254.00;4998326;28;20237;-76
2022/11/03 08:56:45;;;;;;;1999.90;999.90;;;;;;;18.27;100.00;95246.50;4998285;28;20179;-70
2022/11/03 08:59:10;;;;;;;1999.90;999.90;;;;;;;17.97;100.00;95245.31;4998166;28;20171;-75
2022/11/03 09:01:36;;;;;;;1999.90;999.90;;;;;;;17.78;100.00;95231.88;4998326;28;20191;-74
2022/11/03 09:04:02;;;;;;;1999.90;999.90;;;;;;;18.40;100.00;95236.13;4997964;28;20211;-72
2022/11/03 09:06:27;;;;;;;1999.90;999.90;;;;;;;18.67;100.00;95236.16;4997746;28;20184;-68
2022/11/03 09:08:52;;;;;;;1999.90;999.90;;;;;;;18.32;100.00;95237.63;4998547;28;20190;-71
2022/11/03 09:11:18;;;;;;;1999.90;999.90;;;;;;;18.05;100.00;95240.28;4997996;28;20266;-69
2022/11/03 09:13:43;;;;;;;1999.90;999.90;;;;;;;18.40;100.00;95244.41;4997920;28;20190;-73
2022/11/03 09:16:08;;;;;;;1999.90;999.90;;;;;;;18.64;100.00;95231.53;4997829;28;20209;-73
2022/11/03 09:18:34;;;;;;;1999.90;999.90;;;;;;;18.64;100.00;95226.00;4997802;28;20261;-71
2022/11/03 09:20:59;;;;;;;1999.90;999.90;;;;;;;19.11;100.00;95226.34;4997813;28;20175;-72
2022/11/03 09:23:25;;;;;;;1999.90;999.90;;;;;;;19.32;100.00;95214.38;4997916;28;20175;-75
2022/11/03 09:25:50;;;;;;;1999.90;999.90;;;;;;;19.03;100.00;95208.50;4997857;28;20179;-76
2022/11/03 09:28:15;;;;;;;1999.90;999.90;;;;;;;18.61;100.00;95204.81;4998013;28;20182;-77
2022/11/03 09:30:41;;;;;;;1999.90;999.90;;;;;;;18.37;100.00;95203.84;4997755;28;20182;-65
2022/11/03 09:33:06;;;;;;;1999.90;999.90;;;;;;;18.13;100.00;95202.81;4997608;28;20245;-58
2022/11/03 09:35:31;;;;;;;1999.90;999.90;;;;;;;18.81;100.00;95194.06;4997325;28;20272;-59
2022/11/03 09:37:57;;;;;;;1999.90;999.90;;;;;;;18.66;100.00;95184.84;4997266;28;20234;-60
2022/11/03 09:40:24;;;;;;;1999.90;999.90;;;;;;;19.14;100.00;95181.13;4998009;28;20269;-60
2022/11/03 09:42:50;;;;;;;1999.90;999.90;;;;;;;18.97;100.00;95177.13;4998220;28;20191;-63
2022/11/03 09:45:15;;;;;;;1999.90;999.90;;;;;;;19.16;100.00;95178.69;4997381;28;20190;-62
2022/11/03 09:47:44;;;;;;;1999.90;999.90;;;;;;;19.37;100.00;95177.72;4997523;28;20185;-61
2022/11/03 09:50:14;;;;;;;1999.90;999.90;;;;;;;19.62;100.00;95180.13;4997369;28;20175;-64
2022/11/03 09:52:39;;;;;;;1999.90;999.90;;;;;;;19.59;100.00;95178.28;4997218;28;20186;-76
2022/11/03 09:55:12;;;;;;;1999.90;999.90;;;;;;;19.56;100.00;95172.91;4997133;28;20203;-72
2022/11/03 09:57:38;;;;;;;1999.90;999.90;;;;;;;18.97;100.00;95177.91;4997928;28;20177;-75
2022/11/03 10:00:03;;;;;;;1999.90;999.90;;;;;;;18.61;100.00;95177.16;4998028;28;20253;-76
2022/11/03 10:02:31;;;;;;;1999.90;999.90;;;;;;;18.32;100.00;95171.25;4997263;28;20171;-73
2022/11/03 10:05:00;;;;;;;1999.90;999.90;;;;;;;19.14;100.00;95170.84;4996770;28;20199;-73
2022/11/03 10:07:29;;;;;;;1999.90;999.90;;;;;;;18.97;100.00;95171.59;4996976;28;20168;-60
2022/11/03 10:09:57;;;;;;;1999.90;999.90;;;;;;;19.61;100.00;95148.13;4996795;28;20167;-74
2022/11/03 10:12:24;;;;;;;1999.90;999.90;;;;;;;20.01;100.00;95148.56;4997196;28;20178;-59
2022/11/03 10:14:50;;;;;;;1999.90;999.90;;;;;;;19.84;100.00;95150.16;4996741;28;20202;-60
2022/11/03 10:17:18;;;;;;;1999.90;999.90;;;;;;;19.31;100.00;95146.38;4996889;28;20201;-60
2022/11/03 10:19:47;;;;;;;1999.90;999.90;;;;;;;19.55;100.00;95129.81;5000056;28;20193;-58
2022/11/03 10:22:12;;;;;;;1999.90;999.90;;;;;;;19.09;100.00;95129.16;5000825;28;20186;-59
2022/11/03 10:24:38;;;;;;;1999.90;999.90;;;;;;;18.48;100.00;95135.03;5001118;28;20171;-59
2022/11/03 10:27:19;;;;;;;1999.90;999.90;;;;;;;18.84;100.00;95124.72;5000758;28;20180;-73
2022/11/03 10:29:45;;;;;;;1999.90;999.90;;;;;;;19.09;100.00;95124.38;5001373;28;20185;-72
2022/11/03 10:32:28;;;;;;;1999.90;999.90;;;;;;;18.74;100.00;95119.66;5001322;28;20183;-72
2022/11/03 10:34:53;;;;;;;1999.90;999.90;;;;;;;19.19;100.00;95111.28;5000369;28;20226;-72
2022/11/03 10:37:23;;;;;;;1999.90;999.90;;;;;;;19.36;100.00;95113.28;5000541;28;20179;-70
2022/11/03 10:39:50;;;;;;;1999.90;999.90;;;;;;;19.40;100.00;95113.09;5001322;28;20198;-72
2022/11/03 10:42:21;;;;;;;1999.90;999.90;;;;;;;19.26;100.00;95099.91;5000642;28;20302;-73
2022/11/03 10:44:50;;;;;;;1999.90;999.90;;;;;;;18.90;100.00;95102.72;5001115;28;20176;-62
2022/11/03 10:47:32;;;;;;;1999.90;999.90;;;;;;;18.34;100.00;95107.94;5000363;28;20194;-58
2022/11/03 10:49:59;;;;;;;1999.90;999.90;;;;;;;17.96;100.00;95104.84;5017913;28;20164;-59
2022/11/03 10:52:28;;;;;;;1999.90;999.90;;;;;;;17.63;100.00;95109.34;5000743;28;20175;-59
2022/11/03 10:54:56;;;;;;;1999.90;999.90;;;;;;;16.80;100.00;95103.06;5000875;28;20253;-58
2022/11/03 10:57:23;;;;;;;1999.90;999.90;;;;;;;16.76;100.00;95105.19;5000360;28;20187;-58
2022/11/03 10:59:50;;;;;;;1999.90;999.90;;;;;;;16.34;100.00;95097.22;5000190;28;20241;-60
2022/11/03 11:02:21;;;;;;;1999.90;999.90;;;;;;;16.12;100.00;95099.16;5000342;28;20333;-64
2022/11/03 11:05:13;;;;;;;1999.90;999.90;;;;;;;16.08;100.00;95095.78;5000417;28;20289;-60
2022/11/03 11:07:40;;;;;;;1999.90;999.90;;;;;;;15.89;100.00;95096.78;5000563;28;20190;-61
2022/11/03 11:10:10;;;;;;;1999.90;999.90;;;;;;;15.50;100.00;95096.53;5000619;28;20185;-60
2022/11/03 11:12:35;;;;;;;1999.90;999.90;;;;;;;15.25;100.00;95091.78;4999700;28;20183;-61
2022/11/03 11:15:06;;;;;;;1999.90;999.90;;;;;;;15.18;100.00;95086.50;5000429;28;20213;-60
2022/11/03 11:17:48;;;;;;;1999.90;999.90;;;;;;;15.21;100.00;95080.13;5000368;28;20163;-61
2022/11/03 11:20:20;;;;;;;1999.90;999.90;;;;;;;15.23;100.00;95083.19;5000311;28;20179;-60